Time;durP1;ratioP1;P1;durP2;ratioP2;P2;SDS_P1;SDS_P2;PMS_P1;PMS_P2;Temp;Humidity;BMP_temperature;BMP_pressure;BME280_temperature;BME280_humidity;BME280_pressure;Samples;Min_cycle;Max_cycle;Signal;HPM_P1;HPM_P2
2022/03/18 00:01:25;;;;;;;35.00;19.47;;;4.50;99.90;;;;;;8434184;28;20211;-68
2022/03/18 00:05:26;;;;;;;30.30;18.00;;;4.50;99.90;;;;;;8438866;28;20336;-67
2022/03/18 00:09:27;;;;;;;32.23;20.20;;;4.50;99.90;;;;;;8418307;28;20206;-67
2022/03/18 00:13:28;;;;;;;30.13;18.00;;;4.40;99.90;;;;;;8423510;28;20250;-67
2022/03/18 00:17:29;;;;;;;30.00;18.47;;;4.40;99.90;;;;;;8417260;28;20249;-68
2022/03/18 00:21:30;;;;;;;31.27;17.77;;;4.40;1.00;;;;;;8415911;28;20200;-67
2022/03/18 00:25:31;;;;;;;30.60;18.43;;;4.40;1.00;;;;;;8411323;28;20293;-67
2022/03/18 00:29:33;;;;;;;32.17;19.70;;;4.30;1.00;;;;;;8432444;28;20202;-67
2022/03/18 00:33:34;;;;;;;34.57;19.73;;;4.30;1.00;;;;;;8444642;28;20202;-68
2022/03/18 00:37:36;;;;;;;35.57;20.43;;;4.30;2.60;;;;;;8420115;28;20551;-68
2022/03/18 00:41:37;;;;;;;29.97;18.70;;;4.30;1.00;;;;;;8417114;28;20218;-68
2022/03/18 00:45:37;;;;;;;31.03;19.20;;;4.20;10.60;;;;;;8420477;28;20236;-67
2022/03/18 00:53:57;;;;;;;36.57;20.50;;;4.20;77.50;;;;;;8426073;28;20254;-66
2022/03/18 00:57:58;;;;;;;31.33;18.23;;;4.20;99.90;;;;;;8404714;28;20293;-66
2022/03/18 01:01:59;;;;;;;30.47;18.83;;;4.10;1.00;;;;;;8399729;28;20236;-66
2022/03/18 01:06:00;;;;;;;25.57;16.60;;;4.00;13.90;;;;;;8392707;28;20211;-66
2022/03/18 01:10:01;;;;;;;28.47;17.50;;;4.00;99.90;;;;;;8416691;28;20519;-67
2022/03/18 01:14:02;;;;;;;27.53;15.70;;;3.90;99.90;;;;;;8408810;28;20207;-66
2022/03/18 01:18:03;;;;;;;25.10;16.07;;;3.90;99.90;;;;;;8420010;28;20217;-67
2022/03/18 01:22:04;;;;;;;33.87;18.57;;;3.80;1.00;;;;;;8419265;28;20228;-65
2022/03/18 01:26:05;;;;;;;29.53;18.03;;;3.80;1.00;;;;;;8428841;28;20380;-67
2022/03/18 01:30:06;;;;;;;31.77;18.37;;;3.80;99.90;;;;;;8422009;28;20203;-67
2022/03/18 01:34:07;;;;;;;29.90;18.67;;;3.80;99.90;;;;;;8446655;28;20199;-68
2022/03/18 01:38:08;;;;;;;29.17;18.33;;;3.80;99.90;;;;;;8443600;28;20217;-68
2022/03/18 01:42:08;;;;;;;30.97;17.57;;;3.80;99.90;;;;;;8435598;28;20289;-68
2022/03/18 01:46:09;;;;;;;32.23;18.27;;;3.70;1.00;;;;;;8433649;28;20282;-67
2022/03/18 01:50:11;;;;;;;26.87;16.80;;;3.70;1.00;;;;;;8416718;28;20215;-67
2022/03/18 01:58:32;;;;;;;26.77;16.27;;;3.60;1.00;;;;;;8434170;28;20239;-67
2022/03/18 02:02:32;;;;;;;29.30;17.63;;;3.60;99.90;;;;;;8401210;28;20232;-68
2022/03/18 02:06:33;;;;;;;28.47;17.40;;;3.50;99.90;;;;;;8424746;28;20272;-67
2022/03/18 02:10:35;;;;;;;27.40;17.40;;;3.50;99.90;;;;;;8436611;28;20212;-67
2022/03/18 02:14:40;;;;;;;25.20;16.07;;;3.40;99.90;;;;;;8436160;28;20362;-67
2022/03/18 02:18:41;;;;;;;30.97;19.03;;;3.40;99.90;;;;;;8401205;28;20577;-67
2022/03/18 02:22:42;;;;;;;35.13;18.97;;;3.40;1.00;;;;;;8448490;28;20210;-67
2022/03/18 02:26:47;;;;;;;32.53;18.13;;;3.40;99.90;;;;;;8425673;28;20198;-68
2022/03/18 02:30:48;;;;;;;31.30;17.93;;;3.50;99.90;;;;;;8404812;28;20255;-67
2022/03/18 02:34:48;;;;;;;41.47;21.73;;;3.50;1.00;;;;;;8415233;28;20197;-68
2022/03/18 02:38:49;;;;;;;38.40;19.83;;;3.50;1.00;;;;;;8418950;28;20210;-68
2022/03/18 02:42:51;;;;;;;37.30;19.53;;;3.50;1.00;;;;;;8422641;28;20210;-67
2022/03/18 02:46:51;;;;;;;34.27;18.47;;;3.50;1.00;;;;;;8406810;28;20206;-67
2022/03/18 02:50:53;;;;;;;29.00;17.30;;;3.40;1.00;;;;;;8412572;28;20197;-67
2022/03/18 02:54:54;;;;;;;26.37;15.77;;;3.40;1.00;;;;;;8433343;28;20259;-67
2022/03/18 02:58:55;;;;;;;28.30;15.67;;;3.30;42.30;;;;;;8423291;28;20212;-67
2022/03/18 03:02:56;;;;;;;29.43;16.83;;;3.30;93.30;;;;;;8431649;28;20221;-68
2022/03/18 03:11:16;;;;;;;27.27;16.83;;;3.20;99.90;;;;;;8437890;28;20214;-67
2022/03/18 03:15:17;;;;;;;26.70;15.83;;;3.10;99.90;;;;;;8433008;28;20605;-68
2022/03/18 03:19:18;;;;;;;27.77;17.13;;;3.10;51.60;;;;;;8439560;28;20205;-67
2022/03/18 03:23:19;;;;;;;29.73;18.63;;;3.10;85.20;;;;;;8438782;28;20626;-68
2022/03/18 03:27:20;;;;;;;44.57;22.00;;;3.00;1.00;;;;;;8434593;28;20208;-68
2022/03/18 03:31:21;;;;;;;37.03;19.80;;;3.10;1.00;;;;;;8411820;28;20207;-67
2022/03/18 03:35:22;;;;;;;27.80;18.40;;;3.10;99.90;;;;;;8418185;28;20203;-68
2022/03/18 03:39:23;;;;;;;28.03;17.23;;;3.00;99.90;;;;;;8395375;28;20211;-66
2022/03/18 03:43:23;;;;;;;32.73;17.43;;;3.00;1.00;;;;;;8426995;28;20217;-66
2022/03/18 03:47:24;;;;;;;30.23;16.10;;;2.90;99.90;;;;;;8423231;28;20241;-66
2022/03/18 03:51:25;;;;;;;26.30;16.07;;;2.80;99.90;;;;;;8417237;28;20207;-66
2022/03/18 03:55:26;;;;;;;31.63;17.50;;;2.80;99.90;;;;;;8416857;28;20288;-66
2022/03/18 03:59:26;;;;;;;26.57;15.83;;;2.70;99.90;;;;;;8430879;28;20203;-67
2022/03/18 04:03:28;;;;;;;30.40;17.20;;;2.60;99.90;;;;;;8417032;28;20216;-67
2022/03/18 04:07:29;;;;;;;25.00;15.43;;;2.60;1.00;;;;;;8404807;28;20222;-67
2022/03/18 04:11:30;;;;;;;30.43;16.27;;;2.50;1.00;;;;;;8414451;28;20216;-67
2022/03/18 04:15:30;;;;;;;26.50;15.87;;;2.50;99.90;;;;;;8406716;28;20283;-67
2022/03/18 04:19:31;;;;;;;28.90;15.47;;;2.40;41.10;;;;;;8435364;28;20211;-67
2022/03/18 04:23:32;;;;;;;27.63;14.83;;;2.40;1.00;;;;;;8419849;28;20219;-67
2022/03/18 04:27:34;;;;;;;25.67;15.87;;;2.30;1.00;;;;;;8415220;28;20206;-67
2022/03/18 04:31:35;;;;;;;21.87;13.47;;;2.30;1.00;;;;;;8418121;28;20211;-67
2022/03/18 04:35:36;;;;;;;23.47;14.80;;;2.20;1.00;;;;;;8413643;28;20196;-67
2022/03/18 04:39:36;;;;;;;20.20;13.17;;;2.10;9.40;;;;;;8422242;28;20207;-67
2022/03/18 04:43:37;;;;;;;30.83;16.30;;;2.00;52.20;;;;;;8412912;28;20228;-67
2022/03/18 04:47:38;;;;;;;44.23;24.83;;;2.00;99.90;;;;;;8431875;28;20210;-66
2022/03/18 04:51:39;;;;;;;32.33;18.33;;;1.90;96.10;;;;;;8436947;28;20272;-66
2022/03/18 04:55:40;;;;;;;35.40;20.87;;;2.00;1.00;;;;;;8420695;28;20199;-66
2022/03/18 04:59:41;;;;;;;47.57;22.97;;;2.00;99.90;;;;;;8426625;28;20218;-66
2022/03/18 05:03:42;;;;;;;63.63;25.70;;;2.00;99.90;;;;;;8440717;28;20215;-67
2022/03/18 05:07:46;;;;;;;55.60;22.67;;;1.90;99.90;;;;;;8409855;28;20200;-67
2022/03/18 05:11:47;;;;;;;45.77;21.77;;;1.80;1.00;;;;;;8443664;28;20196;-66
2022/03/18 05:15:48;;;;;;;42.37;22.40;;;1.70;99.90;;;;;;8418649;28;20195;-66
2022/03/18 05:19:49;;;;;;;38.40;19.47;;;1.60;99.90;;;;;;8415298;28;20204;-67
2022/03/18 05:23:50;;;;;;;28.03;16.33;;;1.50;1.00;;;;;;8424374;28;20208;-66
2022/03/18 05:27:51;;;;;;;24.10;14.23;;;1.40;87.50;;;;;;8435829;28;20191;-66
2022/03/18 05:31:52;;;;;;;25.10;14.37;;;1.30;99.90;;;;;;8437117;28;20192;-67
2022/03/18 05:35:53;;;;;;;24.23;14.20;;;1.20;5.30;;;;;;8425591;28;20239;-66
2022/03/18 05:39:53;;;;;;;23.07;13.00;;;1.10;99.90;;;;;;8438070;28;20199;-66
2022/03/18 05:43:55;;;;;;;23.53;13.67;;;1.00;1.00;;;;;;8413778;28;20231;-66
2022/03/18 05:47:56;;;;;;;21.00;12.50;;;1.00;99.90;;;;;;8418022;28;20204;-66
2022/03/18 05:51:57;;;;;;;23.93;14.13;;;0.90;1.00;;;;;;8423726;28;20200;-66
2022/03/18 06:00:17;;;;;;;25.93;14.47;;;0.90;99.90;;;;;;8436362;28;20473;-67
2022/03/18 06:04:18;;;;;;;22.43;13.13;;;0.90;1.00;;;;;;8428802;28;20224;-67
2022/03/18 06:12:39;;;;;;;23.40;13.30;;;1.10;99.90;;;;;;8428615;28;20289;-66
2022/03/18 06:16:40;;;;;;;24.30;13.73;;;1.20;99.90;;;;;;8441936;28;20279;-66
2022/03/18 06:20:41;;;;;;;23.60;13.33;;;1.30;99.90;;;;;;8416248;28;20208;-66
2022/03/18 06:24:42;;;;;;;24.47;13.10;;;1.50;85.50;;;;;;8401675;28;20296;-67
2022/03/18 06:28:43;;;;;;;28.60;12.97;;;1.70;1.00;;;;;;8418715;28;20204;-66
2022/03/18 06:32:43;;;;;;;26.40;13.53;;;2.00;99.90;;;;;;8419587;28;20200;-67
2022/03/18 06:36:44;;;;;;;24.90;16.03;;;2.20;99.90;;;;;;8420242;28;20200;-67
2022/03/18 06:40:45;;;;;;;28.23;16.37;;;2.50;1.00;;;;;;8400277;28;20204;-66
2022/03/18 06:44:46;;;;;;;44.30;23.33;;;2.70;99.90;;;;;;8402208;28;20223;-67
2022/03/18 06:48:48;;;;;;;49.13;25.20;;;3.00;99.90;;;;;;8403733;28;20203;-67
2022/03/18 06:52:48;;;;;;;46.33;27.47;;;3.20;1.00;;;;;;8423747;28;20214;-67
2022/03/18 06:56:49;;;;;;;85.70;36.23;;;3.40;99.90;;;;;;8432272;28;20332;-67
2022/03/18 07:00:50;;;;;;;60.10;27.67;;;3.70;1.00;;;;;;8421431;28;20303;-66
2022/03/18 07:04:51;;;;;;;42.23;21.20;;;4.00;99.90;;;;;;8445268;28;20219;-67
2022/03/18 07:08:52;;;;;;;43.00;21.43;;;4.30;1.00;;;;;;8438235;28;20209;-66
2022/03/18 07:12:53;;;;;;;47.90;23.90;;;4.60;99.90;;;;;;8416631;28;20209;-67
2022/03/18 07:21:12;;;;;;;28.70;17.73;;;5.20;1.00;;;;;;8419820;28;20219;-67
2022/03/18 07:25:13;;;;;;;28.83;16.37;;;5.50;1.00;;;;;;8401905;28;20251;-67
2022/03/18 07:29:14;;;;;;;28.97;14.50;;;5.70;99.90;;;;;;8416417;28;20291;-66
2022/03/18 07:33:15;;;;;;;24.23;14.47;;;6.00;99.90;;;;;;8418549;28;20575;-67
2022/03/18 07:37:16;;;;;;;30.70;17.63;;;6.30;99.90;;;;;;8375878;28;20200;-67
2022/03/18 07:41:17;;;;;;;29.43;17.27;;;6.50;99.90;;;;;;8367543;28;20193;-67
2022/03/18 07:45:19;;;;;;;33.37;16.83;;;6.70;99.90;;;;;;8414340;28;20216;-67
2022/03/18 07:49:21;;;;;;;27.63;16.03;;;7.10;99.90;;;;;;8393538;28;20234;-67
2022/03/18 07:53:22;;;;;;;30.17;17.83;;;7.30;51.20;;;;;;8407010;28;20208;-67
2022/03/18 07:57:23;;;;;;;34.43;20.20;;;7.70;1.00;;;;;;8437203;28;20248;-68
2022/03/18 08:01:25;;;;;;;32.03;18.90;;;7.80;1.00;;;;;;8430901;28;20323;-67
2022/03/18 08:05:26;;;;;;;30.50;18.40;;;7.90;1.00;;;;;;8420391;28;20215;-67
2022/03/18 08:09:27;;;;;;;32.50;19.23;;;8.00;1.00;;;;;;8436482;28;20227;-67
2022/03/18 08:13:29;;;;;;;32.07;19.10;;;8.00;1.00;;;;;;8412771;28;20211;-67
2022/03/18 08:17:30;;;;;;;31.43;17.37;;;7.90;1.00;;;;;;8411446;28;20663;-67
2022/03/18 08:21:33;;;;;;;33.83;18.57;;;7.50;1.00;;;;;;8410325;28;20206;-67
2022/03/18 08:25:33;;;;;;;32.43;19.30;;;7.70;1.00;;;;;;8438905;28;20219;-67
2022/03/18 08:29:34;;;;;;;34.77;19.27;;;7.90;1.00;;;;;;8432943;28;20200;-67
2022/03/18 08:33:35;;;;;;;33.93;19.03;;;8.10;1.00;;;;;;8441417;28;20235;-67
2022/03/18 08:37:56;;;;;;;33.87;18.23;;;8.30;1.00;;;;;;8336179;28;20814;-68
2022/03/18 08:41:57;;;;;;;29.03;18.97;;;8.30;1.00;;;;;;8341672;28;20297;-69
2022/03/18 08:45:58;;;;;;;29.00;18.63;;;8.00;1.00;;;;;;8341895;28;20219;-67
2022/03/18 08:49:59;;;;;;;26.80;16.43;;;7.70;1.00;;;;;;8333457;28;20297;-67
2022/03/18 08:54:02;;;;;;;25.73;17.77;;;7.60;1.00;;;;;;8349037;28;20278;-68
2022/03/18 08:58:04;;;;;;;26.20;16.23;;;7.80;1.00;;;;;;8349326;28;20217;-68
2022/03/18 09:02:05;;;;;;;25.30;16.17;;;8.00;1.00;;;;;;8337332;28;20221;-67
2022/03/18 09:06:07;;;;;;;28.30;17.23;;;8.30;1.00;;;;;;8347428;28;20531;-68
2022/03/18 09:10:09;;;;;;;29.33;17.70;;;8.20;1.00;;;;;;8349087;28;20221;-67
2022/03/18 09:14:11;;;;;;;29.87;17.50;;;7.90;1.00;;;;;;8333147;28;20210;-67
2022/03/18 09:18:12;;;;;;;28.30;17.23;;;7.50;1.00;;;;;;8349823;28;20202;-67
2022/03/18 09:22:16;;;;;;;28.50;16.67;;;7.20;1.00;;;;;;8341605;28;20217;-65
2022/03/18 09:26:17;;;;;;;27.83;16.87;;;7.10;1.00;;;;;;8350214;28;20230;-68
2022/03/18 09:30:18;;;;;;;27.00;16.57;;;6.90;32.70;;;;;;8345473;28;20338;-68
2022/03/18 09:34:25;;;;;;;24.80;16.47;;;7.00;38.20;;;;;;8333179;28;20202;-67
2022/03/18 09:38:26;;;;;;;28.60;15.90;;;7.00;16.10;;;;;;8351128;28;20209;-67
2022/03/18 09:42:27;;;;;;;27.10;16.77;;;7.20;44.90;;;;;;8333269;28;20233;-67
2022/03/18 09:46:28;;;;;;;25.40;16.40;;;7.30;26.20;;;;;;8340765;28;20210;-67
2022/03/18 09:50:30;;;;;;;27.17;15.60;;;7.30;55.80;;;;;;8335604;28;20213;-67
2022/03/18 09:54:32;;;;;;;27.23;16.33;;;7.40;1.00;;;;;;8343784;28;20315;-67
2022/03/18 09:58:33;;;;;;;29.40;16.40;;;7.40;1.00;;;;;;8352901;28;20288;-67
2022/03/18 10:02:34;;;;;;;28.37;16.63;;;7.40;11.60;;;;;;8352919;28;20721;-67
2022/03/18 10:06:37;;;;;;;28.13;15.63;;;7.50;42.30;;;;;;8329029;28;20223;-66
2022/03/18 10:10:46;;;;;;;26.13;16.00;;;7.60;44.80;;;;;;8339920;28;20214;-67
2022/03/18 10:14:46;;;;;;;19.77;14.30;;;7.90;1.00;;;;;;8354431;28;20297;-67
2022/03/18 10:18:50;;;;;;;27.40;15.47;;;8.10;1.00;;;;;;8333921;28;20609;-66
2022/03/18 10:22:53;;;;;;;27.10;15.27;;;8.40;1.00;;;;;;8344940;28;20221;-66
2022/03/18 10:27:12;;;;;;;26.03;15.83;;;8.60;1.00;;;;;;8332058;28;20240;-66
2022/03/18 10:31:19;;;;;;;27.73;16.70;;;8.70;99.90;;;;;;8332768;28;20282;-66
2022/03/18 10:39:51;;;;;;;25.10;14.23;;;9.20;99.90;;;;;;8353731;28;20249;-67
2022/03/18 10:43:53;;;;;;;23.63;14.80;;;9.20;99.90;;;;;;8328863;28;20240;-67
2022/03/18 10:47:54;;;;;;;22.43;14.80;;;9.10;99.90;;;;;;8343214;28;20232;-66
2022/03/18 10:52:09;;;;;;;21.77;13.80;;;9.40;99.90;;;;;;8332564;28;20209;-66
2022/03/18 10:56:09;;;;;;;23.93;14.83;;;9.70;99.90;;;;;;8352289;28;20198;-66
2022/03/18 11:00:11;;;;;;;23.77;14.27;;;9.70;99.90;;;;;;8332091;28;20254;-67
2022/03/18 11:04:16;;;;;;;23.73;14.80;;;9.80;99.90;;;;;;8352288;28;20261;-66
2022/03/18 11:08:31;;;;;;;23.77;14.03;;;9.80;99.90;;;;;;8338671;28;20206;-67
2022/03/18 11:12:35;;;;;;;23.23;14.70;;;10.20;99.90;;;;;;8351753;28;20202;-66
2022/03/18 11:16:40;;;;;;;25.10;14.87;;;10.60;99.90;;;;;;8334607;28;20202;-67
2022/03/18 11:20:43;;;;;;;22.50;14.60;;;10.60;99.90;;;;;;8340740;28;20234;-67
2022/03/18 11:24:46;;;;;;;23.57;14.70;;;10.50;99.90;;;;;;8333529;28;20229;-68
2022/03/18 11:29:06;;;;;;;22.67;14.47;;;10.50;99.90;;;;;;8349196;28;20202;-66
2022/03/18 11:33:09;;;;;;;23.07;13.60;;;10.60;99.90;;;;;;8351160;28;20280;-66
2022/03/18 11:37:10;;;;;;;24.53;14.13;;;10.70;99.90;;;;;;8337863;28;20264;-66
2022/03/18 11:41:11;;;;;;;21.50;13.77;;;10.70;99.90;;;;;;8351316;28;20206;-66
2022/03/18 11:45:32;;;;;;;22.97;13.37;;;10.50;99.90;;;;;;8342290;28;20274;-66
2022/03/18 11:49:33;;;;;;;21.10;13.93;;;10.70;99.90;;;;;;8348398;28;20212;-67
2022/03/18 11:53:51;;;;;;;24.47;13.93;;;10.70;99.90;;;;;;8338828;28;20245;-67
2022/03/18 11:57:51;;;;;;;16.70;12.87;;;10.70;99.90;;;;;;8330121;28;20274;-66
2022/03/18 12:02:02;;;;;;;20.17;12.90;;;11.00;99.90;;;;;;8348849;28;20234;-67
2022/03/18 12:06:03;;;;;;;14.37;10.13;;;11.20;99.90;;;;;;8345206;28;20227;-66
2022/03/18 12:10:08;;;;;;;14.57;10.80;;;11.30;99.90;;;;;;8351078;28;20239;-67
2022/03/18 12:14:10;;;;;;;15.73;10.30;;;11.30;99.90;;;;;;8339127;28;20204;-68
2022/03/18 12:18:10;;;;;;;17.23;11.07;;;11.20;99.90;;;;;;8330707;28;20208;-66
2022/03/18 12:22:11;;;;;;;18.23;11.73;;;11.20;99.90;;;;;;8349560;28;20319;-67
2022/03/18 12:26:12;;;;;;;22.87;12.30;;;11.20;99.90;;;;;;8334433;28;20316;-67
2022/03/18 12:30:22;;;;;;;22.43;12.93;;;11.40;99.90;;;;;;8341595;28;20235;-67
2022/03/18 12:34:23;;;;;;;19.03;12.73;;;11.30;99.90;;;;;;8349146;28;20287;-66
2022/03/18 12:38:24;;;;;;;15.83;11.30;;;11.20;99.90;;;;;;8336403;28;20206;-65
2022/03/18 12:42:25;;;;;;;18.43;12.33;;;11.10;99.90;;;;;;8344625;28;20218;-65
2022/03/18 12:46:29;;;;;;;19.83;11.20;;;11.30;99.90;;;;;;8349525;28;20230;-67
2022/03/18 12:50:32;;;;;;;17.47;12.33;;;11.40;99.90;;;;;;8348762;28;20224;-67
2022/03/18 12:54:33;;;;;;;17.83;11.27;;;11.40;99.90;;;;;;8331093;28;20258;-66
2022/03/18 12:58:41;;;;;;;22.10;11.83;;;11.20;99.90;;;;;;8349737;28;20268;-67
2022/03/18 13:02:42;;;;;;;17.77;10.40;;;11.10;99.90;;;;;;8348559;28;20216;-67
2022/03/18 13:06:43;;;;;;;20.90;10.97;;;11.20;99.90;;;;;;8350241;28;20207;-66
2022/03/18 13:10:56;;;;;;;14.97;10.33;;;11.30;99.90;;;;;;8345335;28;20250;-67
2022/03/18 13:14:58;;;;;;;22.47;11.43;;;11.30;99.20;;;;;;8348110;28;20215;-65
2022/03/18 13:18:59;;;;;;;13.97;9.63;;;11.30;98.50;;;;;;8347824;28;20209;-66
2022/03/18 13:23:00;;;;;;;17.00;10.27;;;11.60;94.80;;;;;;8351122;28;20427;-65
2022/03/18 13:27:01;;;;;;;16.60;10.10;;;11.80;72.60;;;;;;8351129;28;20215;-66
2022/03/18 13:35:23;;;;;;;19.10;10.97;;;12.00;58.80;;;;;;8354846;28;20255;-65
2022/03/18 13:39:26;;;;;;;14.70;9.63;;;11.90;42.80;;;;;;8336946;28;20236;-65
2022/03/18 13:43:33;;;;;;;15.50;10.53;;;11.90;34.20;;;;;;8333462;28;20232;-66
2022/03/18 13:47:47;;;;;;;14.70;9.03;;;11.90;35.50;;;;;;8335702;28;20209;-66
2022/03/18 13:51:49;;;;;;;43.23;20.57;;;12.00;32.40;;;;;;8352916;28;20204;-66
2022/03/18 13:55:51;;;;;;;12.90;8.70;;;12.00;25.60;;;;;;8354941;28;20181;-66
2022/03/18 14:00:00;;;;;;;10.07;7.70;;;12.10;24.70;;;;;;8340218;28;20214;-66
2022/03/18 14:04:01;;;;;;;11.30;6.97;;;12.10;22.00;;;;;;8346487;28;20221;-65
2022/03/18 14:08:03;;;;;;;19.73;12.97;;;12.00;15.00;;;;;;8333838;28;20291;-66
2022/03/18 14:12:12;;;;;;;13.33;9.63;;;11.90;11.40;;;;;;8337546;28;20235;-67
2022/03/18 14:16:14;;;;;;;16.47;10.73;;;11.90;13.40;;;;;;8349767;28;20366;-67
2022/03/18 14:20:15;;;;;;;19.33;11.30;;;11.90;15.00;;;;;;8349327;28;20208;-67
2022/03/18 14:24:21;;;;;;;17.13;11.67;;;11.80;22.50;;;;;;8353438;28;20254;-66
2022/03/18 14:28:28;;;;;;;17.07;11.03;;;11.70;29.10;;;;;;8341890;28;20209;-67
2022/03/18 14:32:29;;;;;;;17.17;11.90;;;11.60;31.70;;;;;;8338652;28;20206;-65
2022/03/18 14:36:31;;;;;;;24.13;14.23;;;11.60;37.80;;;;;;8353859;28;20282;-66
2022/03/18 14:40:35;;;;;;;25.00;14.27;;;11.50;44.40;;;;;;8354075;28;20203;-66
2022/03/18 14:44:35;;;;;;;26.47;16.37;;;11.60;55.70;;;;;;8335733;28;20302;-65
2022/03/18 14:48:36;;;;;;;22.47;12.77;;;11.60;58.00;;;;;;8342700;28;20264;-65
2022/03/18 14:52:38;;;;;;;20.77;11.60;;;11.70;54.20;;;;;;8353269;28;20288;-66
2022/03/18 14:56:38;;;;;;;21.67;12.57;;;11.60;51.10;;;;;;8334824;28;20300;-66
2022/03/18 15:00:39;;;;;;;17.07;11.13;;;11.50;49.30;;;;;;8350971;28;20223;-66
2022/03/18 15:04:40;;;;;;;19.07;11.13;;;11.40;43.00;;;;;;8351792;28;20223;-66
2022/03/18 15:08:41;;;;;;;21.83;13.00;;;11.30;41.70;;;;;;8352133;28;20208;-65
2022/03/18 15:12:42;;;;;;;17.80;12.27;;;11.20;43.50;;;;;;8353272;28;20211;-66
2022/03/18 15:16:43;;;;;;;14.20;10.37;;;11.10;36.50;;;;;;8331301;28;20207;-67
2022/03/18 15:20:43;;;;;;;15.47;11.37;;;11.00;34.30;;;;;;8341429;28;20233;-66
2022/03/18 15:24:45;;;;;;;14.37;9.23;;;10.90;28.90;;;;;;8350542;28;20314;-65
2022/03/18 15:28:46;;;;;;;15.13;10.37;;;10.90;23.90;;;;;;8332828;28;20270;-66
2022/03/18 15:32:47;;;;;;;18.70;13.13;;;10.70;22.70;;;;;;8339730;28;20200;-65
2022/03/18 15:36:48;;;;;;;22.80;15.10;;;10.70;28.60;;;;;;8340970;28;20256;-66
2022/03/18 15:40:49;;;;;;;27.53;18.60;;;10.60;31.50;;;;;;8333654;28;20212;-67
2022/03/18 15:44:50;;;;;;;25.80;16.87;;;10.60;38.40;;;;;;8346468;28;20370;-66
2022/03/18 15:48:51;;;;;;;22.43;15.17;;;10.50;40.20;;;;;;8324202;28;20212;-66
2022/03/18 15:52:53;;;;;;;17.07;12.10;;;10.50;44.40;;;;;;8342354;28;20212;-66
2022/03/18 15:56:54;;;;;;;21.43;11.57;;;10.40;55.50;;;;;;8350813;28;20202;-67
2022/03/18 16:00:55;;;;;;;14.90;10.57;;;10.30;59.70;;;;;;8350372;28;20245;-67
2022/03/18 16:04:55;;;;;;;16.40;11.97;;;10.10;77.50;;;;;;8351088;28;20236;-67
2022/03/18 16:08:57;;;;;;;21.10;13.07;;;10.00;92.50;;;;;;8347150;28;20211;-67
2022/03/18 16:13:03;;;;;;;20.93;13.10;;;9.90;99.90;;;;;;8334340;28;20260;-67
2022/03/18 16:17:04;;;;;;;19.00;13.37;;;9.80;99.90;;;;;;8334151;28;20218;-67
2022/03/18 16:21:05;;;;;;;21.73;13.43;;;9.70;99.90;;;;;;8332865;28;20339;-67
2022/03/18 16:25:08;;;;;;;20.53;12.97;;;9.50;99.90;;;;;;8332701;28;20259;-67
2022/03/18 16:29:10;;;;;;;20.57;11.80;;;9.40;99.90;;;;;;8325237;28;20360;-67
2022/03/18 16:33:11;;;;;;;22.17;12.30;;;9.20;99.90;;;;;;8334148;28;20244;-67
2022/03/18 16:37:12;;;;;;;17.67;11.37;;;9.10;99.90;;;;;;8350753;28;20206;-67
2022/03/18 16:41:13;;;;;;;15.87;11.00;;;8.90;99.90;;;;;;8350868;28;20225;-67
2022/03/18 16:45:14;;;;;;;16.07;9.87;;;8.80;99.90;;;;;;8350219;28;20235;-67
2022/03/18 16:49:23;;;;;;;18.40;11.27;;;8.60;99.90;;;;;;8344974;28;20287;-68
2022/03/18 16:53:25;;;;;;;18.27;11.00;;;8.40;99.90;;;;;;8335144;28;20228;-67
2022/03/18 16:57:30;;;;;;;18.67;10.80;;;8.20;99.90;;;;;;8332389;28;20209;-68
2022/03/18 17:01:48;;;;;;;27.17;17.50;;;7.90;99.90;;;;;;8347223;28;20209;-68
2022/03/18 17:05:50;;;;;;;41.40;24.67;;;7.70;99.90;;;;;;8338893;28;20241;-67
2022/03/18 17:09:51;;;;;;;37.37;23.50;;;7.50;99.90;;;;;;8333054;28;20207;-67
2022/03/18 17:13:53;;;;;;;52.43;25.07;;;7.30;99.90;;;;;;8334697;28;20233;-67
2022/03/18 17:17:53;;;;;;;74.50;32.33;;;7.10;99.90;;;;;;8334832;28;20212;-68
2022/03/18 17:21:54;;;;;;;46.37;23.47;;;6.90;99.90;;;;;;8341316;28;20277;-68
2022/03/18 17:25:55;;;;;;;37.87;21.97;;;6.70;99.90;;;;;;8350214;28;20336;-68
2022/03/18 17:29:56;;;;;;;38.17;21.60;;;6.40;99.90;;;;;;8351199;28;20210;-68
2022/03/18 17:33:57;;;;;;;36.33;19.83;;;6.10;99.90;;;;;;8332766;28;20340;-68
2022/03/18 17:37:58;;;;;;;30.10;16.80;;;5.70;99.90;;;;;;8350559;28;20210;-68
2022/03/18 17:41:59;;;;;;;29.33;14.97;;;5.40;99.90;;;;;;8333068;28;20208;-68
2022/03/18 17:46:02;;;;;;;22.53;12.77;;;5.00;1.00;;;;;;8338561;28;20219;-68
2022/03/18 17:50:04;;;;;;;24.40;14.13;;;4.70;1.00;;;;;;8335608;28;20219;-67
2022/03/18 17:54:05;;;;;;;24.80;14.60;;;4.30;1.00;;;;;;8338025;28;20216;-67
2022/03/18 17:58:06;;;;;;;32.90;18.27;;;4.10;1.00;;;;;;8336753;28;20298;-68
2022/03/18 18:02:06;;;;;;;36.10;20.20;;;3.90;1.00;;;;;;8351047;28;20222;-68
2022/03/18 18:06:07;;;;;;;39.80;21.03;;;3.60;38.80;;;;;;8339884;28;20209;-67
2022/03/18 18:10:08;;;;;;;38.67;19.97;;;3.40;99.90;;;;;;8351981;28;20221;-68
2022/03/18 18:14:10;;;;;;;36.60;19.47;;;3.20;99.90;;;;;;8341907;28;20210;-68
2022/03/18 18:18:11;;;;;;;33.67;18.50;;;3.00;99.90;;;;;;8333059;28;20436;-66
2022/03/18 18:22:12;;;;;;;30.20;16.57;;;2.80;99.90;;;;;;8337615;28;20209;-66
2022/03/18 18:26:17;;;;;;;26.30;15.47;;;2.60;99.90;;;;;;8356505;28;20255;-66
2022/03/18 18:30:18;;;;;;;26.13;14.20;;;2.50;99.90;;;;;;8334740;28;20296;-67
2022/03/18 18:34:19;;;;;;;23.40;13.77;;;2.30;1.00;;;;;;8355870;28;20237;-66
2022/03/18 18:38:20;;;;;;;26.97;14.57;;;2.20;1.00;;;;;;8336822;28;20217;-67
2022/03/18 18:42:22;;;;;;;21.87;13.73;;;2.00;1.00;;;;;;8337955;28;20316;-66
2022/03/18 18:46:24;;;;;;;24.07;13.33;;;1.90;1.00;;;;;;8353177;28;20241;-66
2022/03/18 18:50:25;;;;;;;22.27;12.07;;;1.80;1.00;;;;;;8333476;28;20301;-66
2022/03/18 18:54:29;;;;;;;22.67;11.53;;;1.70;1.00;;;;;;8328811;28;20212;-66
2022/03/18 18:58:31;;;;;;;20.97;11.90;;;1.50;1.00;;;;;;8338434;28;20213;-66
2022/03/18 19:02:32;;;;;;;19.50;11.30;;;1.40;18.20;;;;;;8340128;28;20235;-66
2022/03/18 19:06:33;;;;;;;19.60;10.43;;;1.30;55.20;;;;;;8341881;28;20220;-66
2022/03/18 19:10:34;;;;;;;20.57;11.20;;;1.20;54.70;;;;;;8343292;28;20205;-66
2022/03/18 19:14:35;;;;;;;21.70;11.10;;;1.00;99.90;;;;;;8341988;28;20206;-66
2022/03/18 19:18:36;;;;;;;19.03;10.20;;;0.90;99.90;;;;;;8348443;28;20219;-66
2022/03/18 19:22:38;;;;;;;16.77;9.53;;;0.80;99.90;;;;;;8328242;28;20266;-66
2022/03/18 19:26:39;;;;;;;16.37;9.20;;;0.70;99.90;;;;;;8351739;28;20240;-66
2022/03/18 19:30:40;;;;;;;18.23;10.00;;;0.60;99.90;;;;;;8336635;28;20259;-67
2022/03/18 19:34:41;;;;;;;13.53;9.10;;;0.50;99.90;;;;;;8352825;28;20208;-66
2022/03/18 19:38:44;;;;;;;16.10;9.87;;;0.30;99.90;;;;;;8352974;28;20266;-66
2022/03/18 19:42:44;;;;;;;14.77;9.00;;;0.20;1.00;;;;;;8334929;28;20225;-65
2022/03/18 19:46:46;;;;;;;16.30;8.67;;;0.10;1.00;;;;;;8352983;28;20207;-65
2022/03/18 19:50:48;;;;;;;18.03;8.93;;;0.00;1.00;;;;;;8351022;28;20277;-66
2022/03/18 19:54:49;;;;;;;15.90;9.13;;;-0.10;5.20;;;;;;8351782;28;20246;-65
2022/03/18 20:03:10;;;;;;;17.80;9.60;;;-0.30;99.90;;;;;;8350668;28;20359;-65
2022/03/18 20:07:10;;;;;;;19.43;9.53;;;-0.40;99.90;;;;;;8335896;28;20210;-66
2022/03/18 20:11:13;;;;;;;15.47;9.67;;;-0.50;99.90;;;;;;8333124;28;20285;-65
2022/03/18 20:15:17;;;;;;;22.20;10.97;;;-0.60;99.90;;;;;;8342892;28;20190;-65
2022/03/18 20:19:18;;;;;;;17.87;10.37;;;-0.60;99.90;;;;;;8320457;28;20263;-68
2022/03/18 20:23:19;;;;;;;20.13;11.53;;;-0.70;99.90;;;;;;8342266;28;20226;-65
2022/03/18 20:27:20;;;;;;;21.07;11.40;;;-0.80;99.90;;;;;;8351096;28;20221;-65
2022/03/18 20:31:21;;;;;;;21.47;10.70;;;-0.90;99.90;;;;;;8337170;28;20193;-66
2022/03/18 20:35:22;;;;;;;20.93;10.87;;;-1.00;1.00;;;;;;8349448;28;20229;-65
2022/03/18 20:39:23;;;;;;;20.37;10.53;;;-1.10;1.00;;;;;;8331642;28;20201;-65
2022/03/18 20:43:26;;;;;;;19.53;11.70;;;-1.10;1.00;;;;;;8350653;28;20324;-65
2022/03/18 20:47:27;;;;;;;25.23;13.10;;;-1.20;42.80;;;;;;8339451;28;20209;-66
2022/03/18 20:51:30;;;;;;;22.03;11.73;;;-1.20;62.90;;;;;;8348470;28;20205;-65
2022/03/18 20:55:35;;;;;;;27.87;13.33;;;-1.30;99.90;;;;;;8348867;28;20260;-65
2022/03/18 20:59:36;;;;;;;25.23;13.70;;;-1.40;99.90;;;;;;8339661;28;20210;-65
2022/03/18 21:03:36;;;;;;;25.27;13.43;;;-1.40;99.90;;;;;;8349591;28;20308;-65
2022/03/18 21:07:37;;;;;;;26.23;12.67;;;-1.50;99.90;;;;;;8342208;28;20240;-65
2022/03/18 21:11:38;;;;;;;24.50;12.50;;;-1.60;99.90;;;;;;8332319;28;20205;-66
2022/03/18 21:15:39;;;;;;;20.03;11.93;;;-1.70;1.00;;;;;;8328524;28;20213;-66
2022/03/18 21:19:40;;;;;;;23.77;12.23;;;-1.80;1.00;;;;;;8348042;28;20198;-65
2022/03/18 21:23:41;;;;;;;21.37;12.70;;;-1.90;99.90;;;;;;8348771;28;20259;-66